createdAt,value
2019-04-06T00:01:20.070Z,9.30
2019-04-06T00:03:52.104Z,9.30
2019-04-06T00:06:22.102Z,9.30
2019-04-06T00:08:52.329Z,9.30
2019-04-06T00:11:22.602Z,9.30
2019-04-06T00:13:52.977Z,9.30
2019-04-06T00:16:23.191Z,9.30
2019-04-06T00:18:53.503Z,9.30
2019-04-06T00:21:24.030Z,9.30
2019-04-06T00:23:54.206Z,9.30
2019-04-06T00:26:24.444Z,9.30
2019-04-06T00:28:54.776Z,9.30
2019-04-06T00:31:34.630Z,9.30
2019-04-06T00:34:04.799Z,9.30
2019-04-06T00:36:35.095Z,9.20
2019-04-06T00:39:08.957Z,9.20
2019-04-06T00:41:39.326Z,9.20
2019-04-06T00:44:10.137Z,9.30
2019-04-06T00:46:40.420Z,9.30
2019-04-06T00:49:10.710Z,9.30
2019-04-06T00:51:41.012Z,9.30
2019-04-06T00:54:11.168Z,9.30
2019-04-06T00:56:41.633Z,9.30
2019-04-06T00:59:11.773Z,9.30
2019-04-06T01:01:42.197Z,9.30
2019-04-06T01:04:12.532Z,9.30
2019-04-06T01:06:42.882Z,9.30
2019-04-06T01:09:13.028Z,9.20
2019-04-06T01:11:43.533Z,9.30
2019-04-06T01:14:13.879Z,9.20
2019-04-06T01:16:44.126Z,9.20
2019-04-06T01:19:14.373Z,9.10
2019-04-06T01:21:44.780Z,9.10
2019-04-06T01:24:15.053Z,9.10
2019-04-06T01:26:45.263Z,9.10
2019-04-06T01:29:15.528Z,9.10
2019-04-06T01:31:45.814Z,9.10
2019-04-06T01:34:15.985Z,9.10
2019-04-06T01:36:46.205Z,9.00
2019-04-06T01:39:16.463Z,9.00
2019-04-06T01:41:46.991Z,9.00
2019-04-06T01:44:17.220Z,9.00
2019-04-06T01:46:47.394Z,9.00
2019-04-06T01:49:17.707Z,9.00
2019-04-06T01:51:48.080Z,8.90
2019-04-06T01:54:18.404Z,8.90
2019-04-06T01:56:48.593Z,9.00
2019-04-06T01:59:19.221Z,9.00
2019-04-06T02:02:08.060Z,9.00
2019-04-06T02:04:38.438Z,9.00
2019-04-06T02:07:08.874Z,8.90
2019-04-06T02:09:39.151Z,8.90
2019-04-06T02:12:09.355Z,8.90
2019-04-06T02:14:39.528Z,8.90
2019-04-06T02:17:09.701Z,8.90
2019-04-06T02:19:39.927Z,8.90
2019-04-06T02:22:10.216Z,8.90
2019-04-06T02:24:40.356Z,8.90
2019-04-06T02:27:10.534Z,8.90
2019-04-06T02:29:40.881Z,8.90
2019-04-06T02:32:19.364Z,8.80
2019-04-06T02:35:11.268Z,8.90
2019-04-06T02:37:56.569Z,8.80
2019-04-06T02:40:44.529Z,8.80
2019-04-06T02:43:18.217Z,8.90
2019-04-06T02:45:48.493Z,8.90
2019-04-06T02:48:19.137Z,8.80
2019-04-06T02:50:50.806Z,8.90
2019-04-06T02:53:21.328Z,8.90
2019-04-06T02:55:51.535Z,8.90
2019-04-06T02:58:23.237Z,8.90
2019-04-06T03:00:53.586Z,8.90
2019-04-06T03:03:23.907Z,8.90
2019-04-06T03:05:54.080Z,8.90
2019-04-06T03:08:24.316Z,8.90
2019-04-06T03:10:54.477Z,8.90
2019-04-06T03:13:24.721Z,8.80
2019-04-06T03:15:54.908Z,8.90
2019-04-06T03:18:25.257Z,8.90
2019-04-06T03:20:55.452Z,8.90
2019-04-06T03:23:25.852Z,8.90
2019-04-06T03:25:56.170Z,8.90
2019-04-06T03:28:26.367Z,8.90
2019-04-06T03:30:56.835Z,8.90
2019-04-06T03:33:27.192Z,8.80
2019-04-06T03:35:57.801Z,8.80
2019-04-06T03:38:28.108Z,8.70
2019-04-06T03:40:58.292Z,8.70
2019-04-06T03:43:28.484Z,8.80
2019-04-06T03:45:58.705Z,8.80
2019-04-06T03:48:28.946Z,8.80
2019-04-06T03:50:59.124Z,8.80
2019-04-06T03:53:29.393Z,8.70
2019-04-06T03:55:59.732Z,8.80
2019-04-06T03:58:29.807Z,8.80
2019-04-06T04:00:59.937Z,8.70
2019-04-06T04:03:30.084Z,8.80
2019-04-06T04:06:00.250Z,8.70
2019-04-06T04:08:30.446Z,8.70
2019-04-06T04:11:00.665Z,8.70
2019-04-06T04:13:31.147Z,8.70
2019-04-06T04:16:01.558Z,8.70
2019-04-06T04:18:34.091Z,8.70
2019-04-06T04:21:04.335Z,8.80
2019-04-06T04:23:34.481Z,8.80
2019-04-06T04:26:04.687Z,8.70
2019-04-06T04:28:35.032Z,8.80
2019-04-06T04:31:05.214Z,8.70
2019-04-06T04:33:35.453Z,8.70
2019-04-06T04:36:05.831Z,8.70
2019-04-06T04:38:36.130Z,8.70
2019-04-06T04:41:06.513Z,8.70
2019-04-06T04:43:36.821Z,8.70
2019-04-06T04:46:06.906Z,8.70
2019-04-06T04:48:37.216Z,8.70
2019-04-06T04:51:07.297Z,8.80
2019-04-06T04:53:37.440Z,8.80
2019-04-06T04:56:09.645Z,8.80
2019-04-06T04:58:39.972Z,8.80
2019-04-06T05:01:10.095Z,8.80
2019-04-06T05:03:40.280Z,8.80
2019-04-06T05:06:10.468Z,8.80
2019-04-06T05:08:40.586Z,8.80
2019-04-06T05:11:10.919Z,8.80
2019-04-06T05:13:41.038Z,8.80
2019-04-06T05:16:12.558Z,8.80
2019-04-06T05:18:43.786Z,8.80
2019-04-06T05:21:14.213Z,8.90
2019-04-06T05:23:44.382Z,8.90
2019-04-06T05:26:16.861Z,8.90
2019-04-06T05:28:47.072Z,8.90
2019-04-06T05:31:17.492Z,8.90
2019-04-06T05:33:47.565Z,8.90
2019-04-06T05:36:17.671Z,8.90
2019-04-06T05:38:47.995Z,8.90
2019-04-06T05:41:18.241Z,8.90
2019-04-06T05:43:48.716Z,8.90
2019-04-06T05:46:19.014Z,9.00
2019-04-06T05:48:49.068Z,8.90
2019-04-06T05:51:19.147Z,8.90
2019-04-06T05:53:49.215Z,8.90
2019-04-06T05:56:19.413Z,9.00
2019-04-06T05:58:49.725Z,9.00
2019-04-06T06:01:20.081Z,9.10
2019-04-06T06:03:50.316Z,9.20
2019-04-06T06:06:20.447Z,9.20
2019-04-06T06:08:50.605Z,9.20
2019-04-06T06:11:20.666Z,9.20
2019-04-06T06:13:50.764Z,9.10
2019-04-06T06:16:20.879Z,9.20
2019-04-06T06:18:51.107Z,9.20
2019-04-06T06:21:21.236Z,9.20
2019-04-06T06:23:51.458Z,9.20
2019-04-06T06:26:21.874Z,9.30
2019-04-06T06:28:52.011Z,9.30
2019-04-06T06:31:22.144Z,9.30
2019-04-06T06:33:52.883Z,9.40
2019-04-06T06:36:25.318Z,9.40
2019-04-06T06:38:55.568Z,9.50
2019-04-06T06:41:25.897Z,9.70
2019-04-06T06:43:56.047Z,9.80
2019-04-06T06:46:26.189Z,9.90
2019-04-06T06:48:56.438Z,10.00
2019-04-06T06:51:28.017Z,10.10
2019-04-06T06:53:58.724Z,10.30
2019-04-06T06:56:28.896Z,10.50
2019-04-06T06:58:59.246Z,10.60
2019-04-06T07:01:29.525Z,10.80
2019-04-06T07:03:59.751Z,10.90
2019-04-06T07:06:29.955Z,11.10
2019-04-06T07:09:00.122Z,11.20
2019-04-06T07:11:30.422Z,11.40
2019-04-06T07:14:00.713Z,11.60
2019-04-06T07:16:31.090Z,11.70
2019-04-06T07:19:01.307Z,11.90
2019-04-06T07:21:31.490Z,12.00
2019-04-06T07:24:02.075Z,11.90
2019-04-06T07:26:32.274Z,11.80
2019-04-06T07:29:02.485Z,11.80
2019-04-06T07:31:37.407Z,11.80
2019-04-06T07:34:09.753Z,11.90
2019-04-06T07:36:41.565Z,12.00
2019-04-06T07:39:11.941Z,12.10
2019-04-06T07:41:42.308Z,12.20
2019-04-06T07:44:12.546Z,12.30
2019-04-06T07:46:42.950Z,12.40
2019-04-06T07:49:13.125Z,12.40
2019-04-06T07:51:43.351Z,12.60
2019-04-06T07:54:13.667Z,12.70
2019-04-06T07:56:44.083Z,12.90
2019-04-06T07:59:14.813Z,12.90
2019-04-06T08:01:45.026Z,12.90
2019-04-06T08:04:15.225Z,13.00
2019-04-06T08:06:46.120Z,13.00
2019-04-06T08:09:16.386Z,13.10
2019-04-06T08:11:46.585Z,13.20
2019-04-06T08:14:16.978Z,13.40
2019-04-06T08:16:47.240Z,13.60
2019-04-06T08:19:17.583Z,13.70
2019-04-06T08:21:47.751Z,13.80
2019-04-06T08:24:17.991Z,14.00
2019-04-06T08:26:48.910Z,14.20
2019-04-06T08:29:19.192Z,14.40
2019-04-06T08:31:50.321Z,14.30
2019-04-06T08:34:20.574Z,14.30
2019-04-06T08:36:50.649Z,14.30
2019-04-06T08:39:20.860Z,14.20
2019-04-06T08:41:51.230Z,14.20
2019-04-06T08:44:21.448Z,14.00
2019-04-06T08:46:51.599Z,13.90
2019-04-06T08:49:21.789Z,13.90
2019-04-06T08:51:52.214Z,14.00
2019-04-06T08:54:22.363Z,14.20
2019-04-06T08:56:53.052Z,14.30
2019-04-06T08:59:23.292Z,14.30
2019-04-06T09:01:53.508Z,14.10
2019-04-06T09:04:23.820Z,14.00
2019-04-06T09:06:54.026Z,14.00
2019-04-06T09:09:24.269Z,14.20
2019-04-06T09:11:54.501Z,14.20
2019-04-06T09:14:24.671Z,14.40
2019-04-06T09:16:54.826Z,14.30
2019-04-06T09:19:24.931Z,14.30
2019-04-06T09:21:55.155Z,14.40
2019-04-06T09:24:26.627Z,14.60
2019-04-06T09:26:56.758Z,14.80
2019-04-06T09:29:26.988Z,15.10
2019-04-06T09:31:57.476Z,15.40
2019-04-06T09:34:29.554Z,15.70
2019-04-06T09:36:59.642Z,15.90
2019-04-06T09:39:29.733Z,15.90
2019-04-06T09:41:59.803Z,15.80
2019-04-06T09:44:51.934Z,15.70
2019-04-06T09:47:50.655Z,15.50
2019-04-06T09:50:38.887Z,15.30
2019-04-06T09:53:43.222Z,15.50
2019-04-06T09:56:29.822Z,15.70
2019-04-06T09:59:18.899Z,16.00
2019-04-06T10:02:12.413Z,16.20
2019-04-06T10:04:59.916Z,16.40
2019-04-06T10:07:49.033Z,16.50
2019-04-06T10:10:38.300Z,16.40
2019-04-06T10:13:16.485Z,16.20
2019-04-06T10:16:03.377Z,15.90
2019-04-06T10:18:40.201Z,16.00
2019-04-06T10:21:28.064Z,16.00
2019-04-06T10:24:07.267Z,16.10
2019-04-06T10:26:55.342Z,16.30
2019-04-06T10:29:50.802Z,16.70
2019-04-06T10:32:48.820Z,16.90
2019-04-06T10:35:53.359Z,17.10
2019-04-06T10:38:36.205Z,17.20
2019-04-06T10:41:13.668Z,17.40
2019-04-06T10:43:50.903Z,17.50
2019-04-06T10:46:42.872Z,17.50
2019-04-06T10:49:29.323Z,17.40
2019-04-06T10:52:24.567Z,17.30
2019-04-06T10:55:12.702Z,17.20
2019-04-06T10:57:54.350Z,17.20
2019-04-06T11:00:51.857Z,17.20
2019-04-06T11:03:47.032Z,17.10
2019-04-06T11:06:22.679Z,16.90
2019-04-06T11:09:21.258Z,17.00
2019-04-06T11:12:13.023Z,17.00
2019-04-06T11:15:01.385Z,16.80
2019-04-06T11:17:53.350Z,16.60
2019-04-06T11:20:51.979Z,16.50
2019-04-06T11:23:41.381Z,16.50
2019-04-06T11:26:30.288Z,16.70
2019-04-06T11:29:22.341Z,17.10
2019-04-06T11:32:05.466Z,17.20
2019-04-06T11:34:57.336Z,17.20
2019-04-06T11:37:46.501Z,17.40
2019-04-06T11:40:33.771Z,17.60
2019-04-06T11:43:24.737Z,17.80
2019-04-06T11:46:14.137Z,18.00
2019-04-06T11:49:03.214Z,17.90
2019-04-06T11:52:07.855Z,18.00
2019-04-06T11:54:47.853Z,17.90
2019-04-06T11:57:45.970Z,17.80
2019-04-06T12:00:39.486Z,17.80
2019-04-06T12:03:23.901Z,17.90
2019-04-06T12:06:18.875Z,18.10
2019-04-06T12:08:57.459Z,18.50
2019-04-06T12:12:05.139Z,18.60
2019-04-06T12:14:57.316Z,18.70
2019-04-06T12:17:46.573Z,18.80
2019-04-06T12:20:38.735Z,18.80
2019-04-06T12:23:34.344Z,18.80
2019-04-06T12:26:23.859Z,19.00
2019-04-06T12:29:17.008Z,18.90
2019-04-06T12:32:09.218Z,18.60
2019-04-06T12:35:01.984Z,18.50
2019-04-06T12:37:57.347Z,18.50
2019-04-06T12:40:47.595Z,18.60
2019-04-06T12:43:42.606Z,18.30
2019-04-06T12:46:40.524Z,18.20
2019-04-06T12:49:35.399Z,18.00
2019-04-06T12:52:19.060Z,17.90
2019-04-06T12:55:06.992Z,18.10
2019-04-06T12:57:54.885Z,18.30
2019-04-06T13:00:49.591Z,18.60
2019-04-06T13:03:17.747Z,18.80
2019-04-06T13:06:06.772Z,18.80
2019-04-06T13:08:47.753Z,18.90
2019-04-06T13:11:36.975Z,18.90
2019-04-06T13:14:19.840Z,19.00
2019-04-06T13:17:15.274Z,18.90
2019-04-06T13:19:51.928Z,18.90
2019-04-06T13:22:56.515Z,18.70
2019-04-06T13:25:40.162Z,18.70
2019-04-06T13:28:22.895Z,18.40
2019-04-06T13:31:21.149Z,18.20
2019-04-06T13:33:58.121Z,18.30
2019-04-06T13:36:47.530Z,18.30
2019-04-06T13:39:31.699Z,18.20
2019-04-06T13:42:16.905Z,18.10
2019-04-06T13:45:15.251Z,18.10
2019-04-06T13:48:01.511Z,18.10
2019-04-06T13:50:39.741Z,18.00
2019-04-06T13:53:39.357Z,18.10
2019-04-06T13:56:31.770Z,18.10
2019-04-06T13:59:10.207Z,18.10
2019-04-06T14:01:58.674Z,18.10
2019-04-06T14:04:47.927Z,18.10
2019-04-06T14:07:29.315Z,18.00
2019-04-06T14:10:08.529Z,17.90
2019-04-06T14:13:06.868Z,17.90
2019-04-06T14:15:55.962Z,17.80
2019-04-06T14:18:43.883Z,17.80
2019-04-06T14:21:32.063Z,17.80
2019-04-06T14:24:30.336Z,17.90
2019-04-06T14:27:11.702Z,17.80
2019-04-06T14:29:48.558Z,17.70
2019-04-06T14:32:50.022Z,17.60
2019-04-06T14:35:39.307Z,17.60
2019-04-06T14:38:34.285Z,17.50
2019-04-06T14:41:32.651Z,17.40
2019-04-06T14:44:28.099Z,17.40
2019-04-06T14:47:20.025Z,17.40
2019-04-06T14:50:08.258Z,17.40
2019-04-06T14:53:12.712Z,17.60
2019-04-06T14:56:02.469Z,17.70
2019-04-06T14:58:51.659Z,17.70
2019-04-06T15:01:38.485Z,17.70
2019-04-06T15:04:10.191Z,17.60
2019-04-06T15:07:11.959Z,17.60
2019-04-06T15:10:05.264Z,17.60
2019-04-06T15:12:54.409Z,17.60
2019-04-06T15:15:37.139Z,17.60
2019-04-06T15:18:23.445Z,17.50
2019-04-06T15:21:12.978Z,17.50
2019-04-06T15:23:56.010Z,17.60
2019-04-06T15:26:33.153Z,17.60
2019-04-06T15:29:20.141Z,17.60
2019-04-06T15:32:21.621Z,17.60
2019-04-06T15:35:06.496Z,17.60
2019-04-06T15:37:54.415Z,17.60
2019-04-06T15:40:46.834Z,17.60
2019-04-06T15:43:24.208Z,17.60
2019-04-06T15:46:16.516Z,17.60
2019-04-06T15:49:00.510Z,17.50
2019-04-06T15:51:45.098Z,17.40
2019-04-06T15:54:34.199Z,17.30
2019-04-06T15:57:16.641Z,17.40
2019-04-06T16:00:12.322Z,17.60
2019-04-06T16:03:00.379Z,17.80
2019-04-06T16:05:39.944Z,17.90
2019-04-06T16:08:16.328Z,17.90
2019-04-06T16:10:58.519Z,17.80
2019-04-06T16:13:48.686Z,17.70
2019-04-06T16:16:37.782Z,17.60
2019-04-06T16:19:26.257Z,17.60
2019-04-06T16:22:21.835Z,17.60
2019-04-06T16:24:57.725Z,17.50
2019-04-06T16:27:42.981Z,17.40
2019-04-06T16:30:26.889Z,17.40
2019-04-06T16:33:03.416Z,17.40
2019-04-06T16:35:51.349Z,17.50
2019-04-06T16:38:30.173Z,17.70
2019-04-06T16:41:13.299Z,17.90
2019-04-06T16:43:54.938Z,18.00
2019-04-06T16:46:44.162Z,18.00
2019-04-06T16:49:36.307Z,17.90
2019-04-06T16:52:34.898Z,17.80
2019-04-06T16:55:12.142Z,17.80
2019-04-06T16:58:00.460Z,17.80
2019-04-06T17:00:53.174Z,17.70
2019-04-06T17:03:48.476Z,17.70
2019-04-06T17:06:31.787Z,17.70
2019-04-06T17:09:34.904Z,17.60
2019-04-06T17:12:14.502Z,17.50
2019-04-06T17:15:09.892Z,17.30
2019-04-06T17:17:58.041Z,17.00
2019-04-06T17:20:46.180Z,16.80
2019-04-06T17:23:24.534Z,16.50
2019-04-06T17:26:16.510Z,16.10
2019-04-06T17:29:05.634Z,15.90
2019-04-06T17:31:50.721Z,15.60
2019-04-06T17:34:35.141Z,15.50
2019-04-06T17:37:33.101Z,15.40
2019-04-06T17:40:23.366Z,15.30
2019-04-06T17:43:11.184Z,15.10
2019-04-06T17:46:00.375Z,14.90
2019-04-06T17:48:58.461Z,14.80
2019-04-06T17:51:46.361Z,14.60
2019-04-06T17:54:42.789Z,14.50
2019-04-06T17:57:44.542Z,14.40
2019-04-06T18:00:42.709Z,14.30
2019-04-06T18:03:30.661Z,14.10
2019-04-06T18:06:19.672Z,14.00
2019-04-06T18:09:21.328Z,13.90
2019-04-06T18:12:11.745Z,13.80
2019-04-06T18:14:42.175Z,13.70
2019-04-06T18:17:12.874Z,13.60
2019-04-06T18:19:43.140Z,13.50
2019-04-06T18:22:13.528Z,13.40
2019-04-06T18:24:44.205Z,13.30
2019-04-06T18:27:14.349Z,13.30
2019-04-06T18:29:44.426Z,13.20
2019-04-06T18:32:32.460Z,13.20
2019-04-06T18:35:02.881Z,13.10
2019-04-06T18:37:52.542Z,13.10
2019-04-06T18:40:27.418Z,13.00
2019-04-06T18:42:57.580Z,12.90
2019-04-06T18:45:30.106Z,12.90
2019-04-06T18:48:00.185Z,12.90
2019-04-06T18:50:35.953Z,12.80
2019-04-06T18:53:02.260Z,12.80
2019-04-06T18:55:32.916Z,12.70
2019-04-06T18:58:10.525Z,12.70
2019-04-06T19:00:34.815Z,12.60
2019-04-06T19:03:14.063Z,12.60
2019-04-06T19:05:39.247Z,12.60
2019-04-06T19:08:09.608Z,12.60
2019-04-06T19:10:40.124Z,12.60
2019-04-06T19:13:10.399Z,12.50
2019-04-06T19:15:41.058Z,12.50
2019-04-06T19:18:11.347Z,12.40
2019-04-06T19:20:41.590Z,12.40
2019-04-06T19:23:12.082Z,12.30
2019-04-06T19:25:42.334Z,12.30
2019-04-06T19:28:14.422Z,12.20
2019-04-06T19:30:45.107Z,12.10
2019-04-06T19:33:23.802Z,12.10
2019-04-06T19:35:47.313Z,12.00
2019-04-06T19:38:17.851Z,11.90
2019-04-06T19:40:49.853Z,11.80
2019-04-06T19:43:20.002Z,11.70
2019-04-06T19:45:50.211Z,11.60
2019-04-06T19:48:20.373Z,11.60
2019-04-06T19:50:51.457Z,11.40
2019-04-06T19:53:22.409Z,11.40
2019-04-06T19:55:53.073Z,11.30
2019-04-06T19:58:23.422Z,11.30
2019-04-06T20:00:53.490Z,11.20
2019-04-06T20:03:34.127Z,11.10
2019-04-06T20:05:56.150Z,11.10
2019-04-06T20:08:28.120Z,11.10
2019-04-06T20:10:58.732Z,11.00
2019-04-06T20:13:29.488Z,11.00
2019-04-06T20:15:59.863Z,11.00
2019-04-06T20:18:30.631Z,10.90
2019-04-06T20:21:00.908Z,10.80
2019-04-06T20:23:31.375Z,10.70
2019-04-06T20:26:01.521Z,10.60
2019-04-06T20:28:32.077Z,10.50
2019-04-06T20:31:02.503Z,10.50
2019-04-06T20:33:32.810Z,10.40
2019-04-06T20:36:03.435Z,10.40
2019-04-06T20:38:33.785Z,10.40
2019-04-06T20:41:04.305Z,10.30
2019-04-06T20:43:34.590Z,10.30
2019-04-06T20:46:06.575Z,10.30
2019-04-06T20:48:36.856Z,10.30
2019-04-06T20:51:07.269Z,10.30
2019-04-06T20:53:37.611Z,10.20
2019-04-06T20:56:08.358Z,10.20
2019-04-06T20:58:39.117Z,10.20
2019-04-06T21:01:09.385Z,10.20
2019-04-06T21:03:39.509Z,10.20
2019-04-06T21:06:12.199Z,10.20
2019-04-06T21:08:42.340Z,10.20
2019-04-06T21:11:12.862Z,10.10
2019-04-06T21:13:46.043Z,10.20
2019-04-06T21:16:16.863Z,10.10
2019-04-06T21:18:47.008Z,10.10
2019-04-06T21:21:20.230Z,10.10
2019-04-06T21:23:51.303Z,10.10
2019-04-06T21:26:21.567Z,10.20
2019-04-06T21:28:51.927Z,10.20
2019-04-06T21:31:22.423Z,10.10
2019-04-06T21:33:52.539Z,10.10
2019-04-06T21:36:23.001Z,10.10
2019-04-06T21:38:53.871Z,10.10
2019-04-06T21:41:24.584Z,10.10
2019-04-06T21:43:54.956Z,10.10
2019-04-06T21:46:25.608Z,10.00
2019-04-06T21:48:55.955Z,10.00
2019-04-06T21:51:26.126Z,10.00
2019-04-06T21:53:56.339Z,9.90
2019-04-06T21:56:27.066Z,9.90
2019-04-06T21:58:57.407Z,9.80
2019-04-06T22:01:28.113Z,9.80
2019-04-06T22:03:58.620Z,9.70
2019-04-06T22:06:29.419Z,9.70
2019-04-06T22:08:59.616Z,9.70
2019-04-06T22:11:29.666Z,9.60
2019-04-06T22:14:01.883Z,9.60
2019-04-06T22:16:32.513Z,9.50
2019-04-06T22:19:02.773Z,9.40
2019-04-06T22:21:33.841Z,9.40
2019-04-06T22:24:04.579Z,9.40
2019-04-06T22:26:37.143Z,9.30
2019-04-06T22:29:07.171Z,9.30
2019-04-06T22:31:37.308Z,9.20
2019-04-06T22:34:07.367Z,9.10
2019-04-06T22:36:38.136Z,9.00
2019-04-06T22:39:13.257Z,9.00
2019-04-06T22:41:46.882Z,9.00
2019-04-06T22:44:17.042Z,9.00
2019-04-06T22:46:51.409Z,8.90
2019-04-06T22:49:21.718Z,8.90
2019-04-06T22:51:51.884Z,8.80
2019-04-06T22:54:21.920Z,8.80
2019-04-06T22:56:52.121Z,8.80
2019-04-06T22:59:25.616Z,8.70
2019-04-06T23:01:56.051Z,8.70
2019-04-06T23:04:54.743Z,8.80
2019-04-06T23:07:26.205Z,8.70
2019-04-06T23:09:58.741Z,8.70
2019-04-06T23:12:29.005Z,8.70
2019-04-06T23:14:59.228Z,8.70
2019-04-06T23:17:29.384Z,8.60
2019-04-06T23:20:00.213Z,8.60
2019-04-06T23:22:30.484Z,8.50
2019-04-06T23:25:00.572Z,8.50
2019-04-06T23:27:30.809Z,8.50
2019-04-06T23:30:01.155Z,8.50
2019-04-06T23:32:31.928Z,8.40
2019-04-06T23:35:02.611Z,8.40
2019-04-06T23:37:33.372Z,8.40
2019-04-06T23:40:04.531Z,8.40
2019-04-06T23:42:34.591Z,8.40
2019-04-06T23:45:04.993Z,8.30
2019-04-06T23:47:35.185Z,8.30
2019-04-06T23:50:05.503Z,8.40
2019-04-06T23:52:35.721Z,8.50
2019-04-06T23:55:06.693Z,8.50
2019-04-06T23:57:37.239Z,8.60
